To NAV CANADA Home Page Login to a new session Search on AWWS site Feedback and Comments Disclaimer Vers la page française équivalente Tips FAQ What's new on the site To the Forecasts and Observations / NOTAM section To "File a Flight Plan" website Publications and other links Update of the User's profile FIC Telephone Numbers My Weather Data Folder Route Weather Data Regional Weather Data Local Weather Data To the Forecasts and Observations / NOTAM section
Request Generated 07/05/2015 at 08:54:41 UTC . Weather information available at that time is displayed.

METAR/TAF

SWIFT CURRENT/SK    (show WxCam)

SPECI CYYN 050833Z AUTO 31009KT 9SM -RA OVC070 15/09 A3002 RMK SLP158
DENSITY ALT 3100FT=
SPECI CYYN 050830Z AUTO 31007KT 9SM OVC070 15/09 A3001 RMK SLP157
DENSITY ALT 3100FT=
SPECI CYYN 050809Z AUTO 33007KT 6SM -RA BKN065 OVC085 15/08 A3001 RMK
SLP155 DENSITY ALT 3200FT=
SPECI CYYN 050806Z AUTO 33006KT 6SM HZ BKN060 OVC085 16/08 A3001 RMK
SLP155 DENSITY ALT 3200FT=
METAR CYYN 050800Z AUTO 34007KT 4SM HZ BKN060 OVC085 16/08 A3001 RMK
SLP155 DENSITY ALT 3200FT=
SPECI CYYN 050754Z AUTO 34007KT 3SM HZ SCT060 OVC085 16/09 A3001 RMK
SLP156 DENSITY ALT 3200FT=
SPECI CYYN 050749Z AUTO 34006KT 2 1/4SM HZ FEW065 OVC085 16/09 A3001
RMK SLP155 DENSITY ALT 3200FT=
METAR CYYN 050700Z AUTO 34010G15KT 1 1/4SM HZ BKN036 OVC080 16/10
A2999 RMK SLP148 DENSITY ALT 3300FT=
METAR CYYN 050600Z AUTO 36006KT 1 1/4SM HZ BKN110 17/10 A2996 RMK
SLP136 DENSITY ALT 3500FT=

TAF CYYN 050538Z 0506/0518 02012KT 2SM FU HZ BKN040 OVC110 TEMPO
0506/0518 6SM FU HZ
BECMG 0508/0510 29012KT
RMK FCST BASED ON AUTO OBS. NXT FCST BY 051200Z=
Your time UTC time
Weather data provided by Environment Canada and NAV CANADA